Caen-Carpiquet Airport

Airport
ICAO code: 
LFRK
IATA Code: 
CFR
Summary
ICAO Region: 
EUR
Territory: 
Location: 
, Basse-Normandie
Serving: 
Caen
Elevation: 
256 ft
Coordinates: 
Aerial View: 
49° 10' 23.999" N, 0° 27' 0" W
Metar
Observation
LFRK 240800Z AUTO 10004KT 3900 BR NSC 00/M00 Q1031 NOSIG
Station
Caen
Date/Time
2022-01-24 08:00:00
Wind direction
100°
Wind speed
04 kts
Lowest cloud amount
nil significant cloud
Temperature
0°C
Dew point
-0°C
Humidity
100%
QNH
1031 hPa
Weather condition
n/a

Runways

Designator Length Width Surface Rops
6/24 1180 30 ASP No/No
13/31 1900 45 ASP No/No
Airport map: 
Aerial View: 

SKYbrary Partners:

Safety knowledge contributed by: